sensor_id;sensor_type;location;lat;lon;timestamp;temperature;humidity
14154;DHT22;7157;53.144;7.570;2023-03-24T00:00:27;12.71;98.60
14154;DHT22;7157;53.144;7.570;2023-03-24T00:10:31;12.49;99.72
14154;DHT22;7157;53.144;7.570;2023-03-24T00:20:35;12.41;100.65
14154;DHT22;7157;53.144;7.570;2023-03-24T00:30:40;12.37;100.53
14154;DHT22;7157;53.144;7.570;2023-03-24T00:40:44;12.34;100.60
14154;DHT22;7157;53.144;7.570;2023-03-24T00:50:50;12.15;102.05
14154;DHT22;7157;53.144;7.570;2023-03-24T01:00:55;12.11;102.76
14154;DHT22;7157;53.144;7.570;2023-03-24T01:11:00;12.10;103.00
14154;DHT22;7157;53.144;7.570;2023-03-24T01:21:03;12.07;103.26
14154;DHT22;7157;53.144;7.570;2023-03-24T01:31:08;11.99;104.26
14154;DHT22;7157;53.144;7.570;2023-03-24T01:41:11;11.98;104.72
14154;DHT22;7157;53.144;7.570;2023-03-24T01:51:18;11.94;105.31
14154;DHT22;7157;53.144;7.570;2023-03-24T02:01:21;12.04;105.08
14154;DHT22;7157;53.144;7.570;2023-03-24T02:11:30;11.97;105.66
14154;DHT22;7157;53.144;7.570;2023-03-24T02:43:36;12.06;106.27
14154;DHT22;7157;53.144;7.570;2023-03-24T02:53:50;12.08;106.59
14154;DHT22;7157;53.144;7.570;2023-03-24T03:03:59;12.19;106.39
14154;DHT22;7157;53.144;7.570;2023-03-24T03:14:07;12.17;106.66
14154;DHT22;7157;53.144;7.570;2023-03-24T03:24:15;12.35;105.96
14154;DHT22;7157;53.144;7.570;2023-03-24T03:34:26;12.29;106.62
14154;DHT22;7157;53.144;7.570;2023-03-24T03:44:32;12.42;106.34
14154;DHT22;7157;53.144;7.570;2023-03-24T03:54:36;12.34;106.95
14154;DHT22;7157;53.144;7.570;2023-03-24T04:04:56;12.48;106.44
14154;DHT22;7157;53.144;7.570;2023-03-24T04:15:21;12.41;106.72
14154;DHT22;7157;53.144;7.570;2023-03-24T04:25:34;12.38;107.35
14154;DHT22;7157;53.144;7.570;2023-03-24T04:35:41;12.30;108.09
14154;DHT22;7157;53.144;7.570;2023-03-24T04:45:48;12.28;108.47
14154;DHT22;7157;53.144;7.570;2023-03-24T04:56:05;11.78;103.40
14154;DHT22;7157;53.144;7.570;2023-03-24T05:06:10;11.57;102.12
14154;DHT22;7157;53.144;7.570;2023-03-24T05:16:14;11.40;100.50
14154;DHT22;7157;53.144;7.570;2023-03-24T05:26:18;11.25;99.38
14154;DHT22;7157;53.144;7.570;2023-03-24T05:36:21;11.22;98.47
14154;DHT22;7157;53.144;7.570;2023-03-24T05:46:25;11.15;98.49
14154;DHT22;7157;53.144;7.570;2023-03-24T05:56:27;11.08;95.60
14154;DHT22;7157;53.144;7.570;2023-03-24T06:06:33;11.18;95.91
14154;DHT22;7157;53.144;7.570;2023-03-24T06:16:35;11.16;96.32
14154;DHT22;7157;53.144;7.570;2023-03-24T06:26:41;11.26;94.49
14154;DHT22;7157;53.144;7.570;2023-03-24T06:36:45;11.13;94.73
14154;DHT22;7157;53.144;7.570;2023-03-24T06:46:48;11.29;93.45
14154;DHT22;7157;53.144;7.570;2023-03-24T06:56:51;11.40;91.65
14154;DHT22;7157;53.144;7.570;2023-03-24T07:06:55;11.26;94.22
14154;DHT22;7157;53.144;7.570;2023-03-24T07:17:18;11.30;93.56
14154;DHT22;7157;53.144;7.570;2023-03-24T07:27:25;11.39;93.21
14154;DHT22;7157;53.144;7.570;2023-03-24T07:37:28;11.46;91.88
14154;DHT22;7157;53.144;7.570;2023-03-24T07:47:32;11.84;90.34
14154;DHT22;7157;53.144;7.570;2023-03-24T07:57:34;11.87;90.39
14154;DHT22;7157;53.144;7.570;2023-03-24T08:07:39;12.27;90.83
14154;DHT22;7157;53.144;7.570;2023-03-24T08:17:44;11.89;88.99
14154;DHT22;7157;53.144;7.570;2023-03-24T08:27:49;11.88;88.57
14154;DHT22;7157;53.144;7.570;2023-03-24T08:37:52;12.17;88.49
14154;DHT22;7157;53.144;7.570;2023-03-24T08:47:58;12.22;86.96
14154;DHT22;7157;53.144;7.570;2023-03-24T08:58:01;12.26;86.20
14154;DHT22;7157;53.144;7.570;2023-03-24T09:08:06;12.73;83.07
14154;DHT22;7157;53.144;7.570;2023-03-24T09:18:09;12.53;83.16
14154;DHT22;7157;53.144;7.570;2023-03-24T09:28:13;12.31;84.88
14154;DHT22;7157;53.144;7.570;2023-03-24T09:38:16;12.36;84.57
14154;DHT22;7157;53.144;7.570;2023-03-24T09:48:27;13.08;81.12
14154;DHT22;7157;53.144;7.570;2023-03-24T09:58:32;13.41;79.63
14154;DHT22;7157;53.144;7.570;2023-03-24T10:08:40;13.18;71.55
14154;DHT22;7157;53.144;7.570;2023-03-24T10:18:48;13.39;71.06
14154;DHT22;7157;53.144;7.570;2023-03-24T10:29:05;13.83;66.23
14154;DHT22;7157;53.144;7.570;2023-03-24T10:39:13;13.88;60.44
14154;DHT22;7157;53.144;7.570;2023-03-24T10:49:24;14.13;59.99
14154;DHT22;7157;53.144;7.570;2023-03-24T10:59:29;14.88;61.41
14154;DHT22;7157;53.144;7.570;2023-03-24T11:09:42;14.66;61.96
14154;DHT22;7157;53.144;7.570;2023-03-24T11:19:53;14.92;60.28
14154;DHT22;7157;53.144;7.570;2023-03-24T11:29:58;15.84;54.71
14154;DHT22;7157;53.144;7.570;2023-03-24T11:40:14;22.91;34.82
14154;DHT22;7157;53.144;7.570;2023-03-24T11:50:23;19.20;39.18
14154;DHT22;7157;53.144;7.570;2023-03-24T12:00:31;22.36;32.53
14154;DHT22;7157;53.144;7.570;2023-03-24T12:10:46;22.81;31.99
14154;DHT22;7157;53.144;7.570;2023-03-24T12:20:58;22.86;27.84
14154;DHT22;7157;53.144;7.570;2023-03-24T12:31:12;24.89;23.98
14154;DHT22;7157;53.144;7.570;2023-03-24T12:41:35;24.45;25.59
14154;DHT22;7157;53.144;7.570;2023-03-24T12:51:46;24.42;27.67
14154;DHT22;7157;53.144;7.570;2023-03-24T13:02:04;25.27;26.29
14154;DHT22;7157;53.144;7.570;2023-03-24T13:12:15;22.34;33.03
14154;DHT22;7157;53.144;7.570;2023-03-24T13:22:19;21.73;35.32
14154;DHT22;7157;53.144;7.570;2023-03-24T13:32:30;16.73;46.93
14154;DHT22;7157;53.144;7.570;2023-03-24T13:42:42;15.73;51.14
14154;DHT22;7157;53.144;7.570;2023-03-24T13:52:48;20.76;33.40
14154;DHT22;7157;53.144;7.570;2023-03-24T14:02:51;18.47;39.48
14154;DHT22;7157;53.144;7.570;2023-03-24T14:13:00;18.30;40.22
14154;DHT22;7157;53.144;7.570;2023-03-24T14:23:04;18.23;40.54
14154;DHT22;7157;53.144;7.570;2023-03-24T14:33:23;18.95;40.33
14154;DHT22;7157;53.144;7.570;2023-03-24T14:43:28;17.36;42.65
14154;DHT22;7157;53.144;7.570;2023-03-24T14:53:35;16.60;45.68
14154;DHT22;7157;53.144;7.570;2023-03-24T15:03:43;15.58;48.99
14154;DHT22;7157;53.144;7.570;2023-03-24T15:13:53;15.26;52.82
14154;DHT22;7157;53.144;7.570;2023-03-24T15:23:56;15.44;58.58
14154;DHT22;7157;53.144;7.570;2023-03-24T15:34:04;14.72;62.87
14154;DHT22;7157;53.144;7.570;2023-03-24T15:44:07;14.80;64.37
14154;DHT22;7157;53.144;7.570;2023-03-24T15:54:19;15.10;62.85
14154;DHT22;7157;53.144;7.570;2023-03-24T16:04:22;14.85;64.27
14154;DHT22;7157;53.144;7.570;2023-03-24T16:14:27;14.75;65.99
14154;DHT22;7157;53.144;7.570;2023-03-24T16:24:31;14.14;70.06
14154;DHT22;7157;53.144;7.570;2023-03-24T16:34:35;13.82;74.09
14154;DHT22;7157;53.144;7.570;2023-03-24T16:44:38;13.63;75.93
14154;DHT22;7157;53.144;7.570;2023-03-24T16:54:42;13.10;79.79
14154;DHT22;7157;53.144;7.570;2023-03-24T17:04:45;12.90;80.48
14154;DHT22;7157;53.144;7.570;2023-03-24T17:14:49;12.84;79.59
14154;DHT22;7157;53.144;7.570;2023-03-24T17:24:52;12.56;80.24
14154;DHT22;7157;53.144;7.570;2023-03-24T17:35:00;11.07;94.11
14154;DHT22;7157;53.144;7.570;2023-03-24T17:45:04;10.70;96.52
14154;DHT22;7157;53.144;7.570;2023-03-24T17:55:10;10.77;96.37
14154;DHT22;7157;53.144;7.570;2023-03-24T18:05:13;10.84;95.78
14154;DHT22;7157;53.144;7.570;2023-03-24T18:15:17;10.93;94.64
14154;DHT22;7157;53.144;7.570;2023-03-24T18:25:20;10.99;94.42
14154;DHT22;7157;53.144;7.570;2023-03-24T18:35:24;10.99;93.76
14154;DHT22;7157;53.144;7.570;2023-03-24T18:45:28;10.78;94.43
14154;DHT22;7157;53.144;7.570;2023-03-24T18:55:32;10.77;93.21
14154;DHT22;7157;53.144;7.570;2023-03-24T19:05:35;10.88;91.43
14154;DHT22;7157;53.144;7.570;2023-03-24T19:15:39;10.80;91.33
14154;DHT22;7157;53.144;7.570;2023-03-24T19:25:42;10.88;91.01
14154;DHT22;7157;53.144;7.570;2023-03-24T19:35:47;11.08;89.91
14154;DHT22;7157;53.144;7.570;2023-03-24T19:45:51;11.14;89.35
14154;DHT22;7157;53.144;7.570;2023-03-24T19:55:58;10.92;90.26
14154;DHT22;7157;53.144;7.570;2023-03-24T20:06:22;11.09;89.49
14154;DHT22;7157;53.144;7.570;2023-03-24T20:16:28;10.94;90.11
14154;DHT22;7157;53.144;7.570;2023-03-24T20:26:31;11.17;89.41
14154;DHT22;7157;53.144;7.570;2023-03-24T20:36:35;10.90;91.60
14154;DHT22;7157;53.144;7.570;2023-03-24T20:46:41;10.81;91.63
14154;DHT22;7157;53.144;7.570;2023-03-24T20:56:48;10.67;93.27
14154;DHT22;7157;53.144;7.570;2023-03-24T21:06:53;10.64;93.09
14154;DHT22;7157;53.144;7.570;2023-03-24T21:16:58;10.79;92.35
14154;DHT22;7157;53.144;7.570;2023-03-24T21:27:01;10.84;92.36
14154;DHT22;7157;53.144;7.570;2023-03-24T21:37:04;10.95;91.82
14154;DHT22;7157;53.144;7.570;2023-03-24T21:47:10;10.96;91.80
14154;DHT22;7157;53.144;7.570;2023-03-24T21:57:15;11.17;90.32
14154;DHT22;7157;53.144;7.570;2023-03-24T22:07:18;11.09;90.71
14154;DHT22;7157;53.144;7.570;2023-03-24T22:17:24;11.17;90.69
14154;DHT22;7157;53.144;7.570;2023-03-24T22:27:27;10.98;91.01
14154;DHT22;7157;53.144;7.570;2023-03-24T22:37:31;10.80;91.57
14154;DHT22;7157;53.144;7.570;2023-03-24T22:47:34;10.70;91.04
14154;DHT22;7157;53.144;7.570;2023-03-24T22:57:38;10.67;90.73
14154;DHT22;7157;53.144;7.570;2023-03-24T23:07:42;10.64;90.92
14154;DHT22;7157;53.144;7.570;2023-03-24T23:17:46;10.60;91.11
14154;DHT22;7157;53.144;7.570;2023-03-24T23:27:49;10.71;90.24
14154;DHT22;7157;53.144;7.570;2023-03-24T23:37:54;10.65;89.83
14154;DHT22;7157;53.144;7.570;2023-03-24T23:47:56;10.70;89.52
14154;DHT22;7157;53.144;7.570;2023-03-24T23:58:00;10.51;89.79
